Latest Weather Observations for Canterbury

IDN60801

Issued at 2:42 pm EST Saturday 2 July 2022 (issued every 10 minutes, with the page automatically refreshed every 10 minutes)

About weather observations | Map of weather stations | Latest weather observations for NSW | Other Formats
Station Details ID: 066194 Name: CANTERBURY RACECOURSE AWS Lat: -33.91 Lon: 151.11 Height: 3.0 m
Data from the previous 72 hours. | See also: Recent months at Canterbury
Date/Time
EST
Temp
°C
App
Temp
°C
Dew
Point
°C
Rel
Hum
%
Delta-T
°C
Wind Press
QNH
hPa
Press
MSL
hPa
Rain since
9am
mm
Dir  Spd
km/h
Gust
km/h
Spd
kts
Gust
kts
02/02:39pm 14.7 12.0 14.7 100 0.0 SE 22 32 12 17 - - 27.8
02/02:30pm 14.6 12.5 14.6 100 0.0 SE 19 32 10 17 - - 27.0
02/02:16pm 14.5 12.1 14.5 100 0.0 SE 20 30 11 16 - - 26.6
02/02:00pm 14.5 13.9 14.5 100 0.0 ESE 11 19 6 10 - - 26.0
02/01:30pm 14.4 14.5 14.4 100 0.0 SW 7 15 4 8 - - 21.0
02/01:00pm 14.7 15.8 14.7 100 0.0 SE 2 7 1 4 - - 15.8
02/12:33pm 15.2 15.8 15.2 100 0.0 S 6 11 3 6 - - 9.2
02/12:30pm 15.3 16.3 15.3 100 0.0 S 4 9 2 5 - - 9.2
02/12:16pm 15.3 16.3 15.3 100 0.0 NW 4 9 2 5 - - 8.6
02/12:00pm 14.8 16.4 14.8 100 0.0 CALM 0 6 0 3 - - 8.6
02/11:30am 14.8 15.2 14.8 100 0.0 SSW 6 7 3 4 - - 6.2
02/11:17am 14.6 14.8 14.6 100 0.0 WSW 7 13 4 7 - - 5.4
02/11:00am 14.9 15.7 14.9 100 0.0 SW 4 9 2 5 - - 5.0
02/10:32am 13.9 14.0 13.9 100 0.0 WNW 6 9 3 5 - - 5.0
02/10:30am 13.8 13.9 13.8 100 0.0 NW 6 9 3 5 - - 5.0
02/10:07am 13.4 14.1 13.4 100 0.0 W 2 9 1 5 - - 4.2
02/10:02am 13.3 13.2 13.3 100 0.0 W 6 9 3 5 - - 3.8
02/10:00am 13.2 13.1 13.2 100 0.0 WSW 6 9 3 5 - - 3.8
02/09:30am 12.1 12.8 12.1 100 0.0 CALM 0 0 0 0 - - 3.0
02/09:00am 11.8 12.4 11.8 100 0.0 CALM 0 0 0 0 - - 10.0
02/08:51am 11.8 11.6 11.8 100 0.0 N 4 9 2 5 - - 9.6
02/08:33am 11.5 12.0 11.5 100 0.0 CALM 0 0 0 0 - - 9.2
02/08:30am 11.6 12.1 11.6 100 0.0 CALM 0 0 0 0 - - 9.2
02/08:16am 11.4 11.5 11.4 100 0.0 N 2 7 1 4 - - 9.2
02/08:00am 11.3 11.7 11.3 100 0.0 CALM 0 4 0 2 - - 9.0
02/07:36am 11.2 11.2 11.2 100 0.0 NE 2 6 1 3 - - 9.0
02/07:30am 11.1 10.3 11.1 100 0.0 N 6 11 3 6 - - 9.0
02/07:09am 11.1 10.1 11.1 100 0.0 N 7 11 4 6 - - 8.4
02/07:00am 11.1 10.1 11.1 100 0.0 N 7 11 4 6 - - 8.2
02/06:30am 10.9 10.1 10.9 100 0.0 NNW 6 7 3 4 - - 8.2
02/06:00am 11.0 10.2 11.0 100 0.0 NW 6 9 3 5 - - 8.2
02/05:30am 10.8 9.7 10.8 100 0.0 WNW 7 9 4 5 - - 8.2
02/05:00am 10.9 9.9 10.9 100 0.0 NW 7 9 4 5 - - 8.2
02/04:30am 11.1 11.1 11.1 100 0.0 W 2 7 1 4 - - 8.2
02/04:00am 11.0 10.0 11.0 100 0.0 W 7 11 4 6 - - 8.2
02/03:45am 10.9 10.1 10.9 100 0.0 NNW 6 7 3 4 - - 8.2
02/03:30am 10.8 9.9 10.8 100 0.0 NW 6 9 3 5 - - 8.2
02/03:00am 10.8 11.1 10.8 100 0.0 CALM 0 0 0 0 - - 7.8
02/02:30am 10.7 9.8 10.7 100 0.0 WNW 6 9 3 5 - - 7.8
02/02:00am 10.6 9.7 10.6 100 0.0 NNW 6 9 3 5 - - 7.8
02/01:30am 10.6 9.7 10.6 100 0.0 WNW 6 9 3 5 - - 7.8
02/01:00am 10.6 10.4 10.6 100 0.0 NW 2 7 1 4 - - 7.8
02/12:56am 10.6 9.7 10.6 100 0.0 NW 6 7 3 4 - - 7.8
02/12:46am 10.3 10.1 10.3 100 0.0 NNW 2 7 1 4 - - 7.8
02/12:35am 10.4 9.2 10.4 100 0.0 NNW 7 11 4 6 - - 7.8
02/12:30am 10.4 8.9 10.4 100 0.0 N 9 13 5 7 - - 7.8
02/12:08am 10.0 9.7 10.0 100 0.0 SW 2 7 1 4 - - 7.8
02/12:00am 10.8 9.9 10.8 100 0.0 WSW 6 9 3 5 - - 7.8
 
Date/Time
EST
Temp
°C
App
Temp
°C
Dew
Point
°C
Rel
Hum
%
Delta-T
°C
Wind Press
QNH
hPa
Press
MSL
hPa
Rain since
9am
mm
Dir  Spd
km/h
Gust
km/h
Spd
kts
Gust
kts
01/11:30pm 10.9 10.1 10.9 100 0.0 NNW 6 9 3 5 - - 7.6
01/11:00pm 10.9 10.1 10.9 100 0.0 N 6 9 3 5 - - 7.6
01/10:43pm 10.9 9.9 10.9 100 0.0 WSW 7 11 4 6 - - 7.6
01/10:30pm 11.0 10.0 11.0 100 0.0 W 7 9 4 5 - - 7.6
01/10:00pm 11.0 11.3 11.0 100 0.0 CALM 0 0 0 0 - - 6.4
01/09:32pm 11.1 10.7 11.1 100 0.0 WSW 4 9 2 5 - - 5.4
01/09:30pm 11.1 11.1 11.1 100 0.0 WSW 2 7 1 4 - - 5.4
01/09:00pm 11.0 10.2 11.0 100 0.0 WSW 6 9 3 5 - - 4.6
01/08:30pm 11.0 10.2 11.0 100 0.0 WNW 6 9 3 5 - - 4.6
01/08:00pm 11.0 10.2 11.0 100 0.0 WNW 6 9 3 5 - - 4.6
01/07:30pm 11.1 10.1 11.1 100 0.0 NW 7 11 4 6 - - 4.4
01/07:00pm 11.0 11.3 11.0 100 0.0 CALM 0 0 0 0 - - 4.2
01/06:30pm 10.9 10.1 10.9 100 0.0 WNW 6 9 3 5 - - 3.8
01/06:00pm 10.9 9.8 10.7 99 0.1 WNW 7 11 4 6 - - 3.8
01/05:30pm 11.0 10.5 10.8 99 0.1 WNW 4 7 2 4 - - 3.6
01/05:00pm 11.1 11.4 10.9 99 0.1 CALM 0 0 0 0 - - 3.0
01/04:30pm 11.2 10.4 10.9 98 0.2 WNW 6 9 3 5 - - 2.6
01/04:00pm 11.4 10.3 10.8 96 0.3 WNW 7 11 4 6 - - 2.4
01/03:30pm 11.7 11.2 10.8 94 0.5 WNW 4 9 2 5 - - 2.0
01/03:00pm 11.7 11.6 10.8 94 0.5 WSW 2 11 1 6 - - 2.0
01/02:30pm 11.7 10.9 10.9 95 0.4 WNW 6 9 3 5 - - 1.6
01/02:00pm 11.6 10.5 10.5 93 0.6 WSW 7 11 4 6 - - 1.6
01/01:30pm 11.5 10.3 10.4 93 0.6 W 7 13 4 7 - - 1.2
01/01:00pm 11.5 10.7 9.6 88 1.0 W 4 9 2 5 - - 0.6
01/12:30pm 11.8 10.3 9.2 84 1.3 W 7 11 4 6 - - 0.0
01/12:00pm 12.0 10.0 8.8 81 1.6 WSW 9 15 5 8 - - 0.0
01/11:30am 12.3 10.6 10.0 86 1.2 W 9 13 5 7 - - 0.0
01/11:00am 12.3 11.1 10.2 87 1.1 WSW 7 13 4 7 - - 0.0
01/10:30am 12.0 11.1 10.6 91 0.7 WSW 6 13 3 7 - - 0.0
01/10:00am 11.3 10.4 10.7 96 0.3 WNW 6 11 3 6 - - 0.0
01/09:30am 11.0 10.0 10.2 95 0.4 WSW 6 9 3 5 - - 0.0
01/09:00am 11.0 10.4 10.4 96 0.3 W 4 7 2 4 - - 7.2
01/08:30am 10.8 9.7 9.9 94 0.5 WSW 6 9 3 5 - - 6.8
01/08:00am 10.7 8.9 9.6 93 0.6 S 9 17 5 9 - - 6.8
01/07:30am 10.6 8.5 9.8 95 0.4 SSE 11 17 6 9 - - 6.6
01/07:00am 10.4 8.2 9.3 93 0.5 SSE 11 19 6 10 - - 6.0
01/06:30am 10.6 9.1 9.2 91 0.7 SSE 7 13 4 7 - - 5.6
01/06:16am 10.8 9.4 9.6 92 0.6 S 7 17 4 9 - - 5.0
01/06:00am 10.9 10.1 9.7 92 0.6 SSW 4 9 2 5 - - 4.0
01/05:56am 11.0 9.9 9.9 93 0.6 SSW 6 9 3 5 - - 3.6
01/05:30am 11.1 9.5 10.2 94 0.5 S 9 13 5 7 - - 2.8
01/05:18am 11.0 9.8 10.4 96 0.3 SSW 7 15 4 8 - - 2.6
01/05:00am 10.7 9.7 10.2 97 0.3 S 6 9 3 5 - - 2.0
01/04:30am 10.5 9.3 9.7 95 0.4 WSW 6 9 3 5 - - 1.6
01/04:00am 10.3 9.5 9.8 97 0.3 WSW 4 9 2 5 - - 1.4
01/03:30am 10.3 9.5 9.8 97 0.3 NNW 4 7 2 4 - - 1.0
01/03:00am 10.3 9.0 9.2 93 0.5 NNW 6 9 3 5 - - 0.6
01/02:30am 10.2 10.0 9.1 93 0.5 CALM 0 0 0 0 - - 0.4
01/02:00am 10.3 9.9 8.4 88 0.9 CALM 0 0 0 0 - - 0.0
01/01:30am 10.3 9.1 8.1 86 1.1 N 4 6 2 3 - - 0.0
01/01:00am 10.4 9.4 7.3 81 1.5 N 2 7 1 4 - - 0.0
01/12:30am 9.9 8.6 7.5 85 1.1 N 4 7 2 4 - - 0.0
01/12:00am 9.9 9.2 6.8 81 1.5 CALM 0 0 0 0 - - 0.0
 
Date/Time
EST
Temp
°C
App
Temp
°C
Dew
Point
°C
Rel
Hum
%
Delta-T
°C
Wind Press
QNH
hPa
Press
MSL
hPa
Rain since
9am
mm
Dir  Spd
km/h
Gust
km/h
Spd
kts
Gust
kts
30/11:30pm 10.4 9.2 6.4 76 1.9 NNW 2 6 1 3 - - 0.0
30/11:00pm 11.0 9.7 6.2 72 2.2 W 2 6 1 3 - - 0.0
30/10:30pm 10.9 9.4 6.6 75 2.0 W 4 7 2 4 - - 0.0
30/10:00pm 10.1 8.3 7.0 81 1.5 WNW 6 9 3 5 - - 0.0
30/09:30pm 10.3 8.5 7.0 80 1.6 WNW 6 7 3 4 - - 0.0
30/09:00pm 9.8 9.1 7.1 83 1.3 CALM 0 0 0 0 - - 0.0
30/08:30pm 10.1 9.3 6.6 79 1.6 CALM 0 0 0 0 - - 0.0
30/08:00pm 9.8 9.0 6.3 79 1.6 CALM 0 0 0 0 - - 0.0
30/07:30pm 10.2 9.3 6.2 76 1.9 CALM 0 0 0 0 - - 0.0
30/07:00pm 10.5 9.6 6.1 74 2.0 CALM 0 0 0 0 - - 0.0
30/06:30pm 11.1 10.0 5.0 66 2.8 CALM 0 0 0 0 - - 0.0
30/06:00pm 12.0 10.4 4.7 61 3.3 WSW 2 7 1 4 - - 0.0
30/05:30pm 13.7 11.8 2.9 48 4.8 S 2 7 1 4 - - 0.0
30/05:00pm 14.5 11.6 2.7 45 5.3 S 7 11 4 6 - - 0.0
30/04:30pm 15.1 11.8 2.6 43 5.6 SSE 9 15 5 8 - - 0.0
30/04:00pm 15.6 12.0 3.1 43 5.7 SSE 11 17 6 9 - - 0.0
30/03:30pm 15.9 12.7 4.9 48 5.2 S 11 17 6 9 - - 0.0
30/03:00pm 16.0 12.7 4.4 46 5.4 SSE 11 20 6 11 - - 0.0
30/02:30pm 16.3 13.1 5.0 47 5.4 SSE 11 19 6 10 - - 0.0
30/02:00pm 16.5 14.1 6.9 53 4.7 ESE 9 13 5 7 - - 0.0
30/01:30pm 16.7 14.1 6.2 50 5.1 S 9 15 5 8 - - 0.0
30/01:00pm 17.1 14.2 6.3 49 5.3 WSW 11 19 6 10 - - 0.0
30/12:30pm 17.3 15.2 6.5 49 5.3 SW 7 15 4 8 - - 0.0
30/12:00pm 16.8 13.5 6.3 50 5.1 WSW 13 20 7 11 - - 0.0
30/11:30am 16.5 12.8 6.3 51 5.0 SW 15 24 8 13 - - 0.0
30/11:00am 15.5 12.2 6.2 54 4.5 SW 13 22 7 12 - - 0.0
30/10:30am 14.6 11.9 7.2 61 3.6 WSW 11 20 6 11 - - 0.0
30/10:00am 13.5 11.9 7.9 69 2.8 WNW 6 9 3 5 - - 0.0
30/09:30am 12.7 11.2 8.6 76 2.0 WNW 6 11 3 6 - - 0.0
30/09:00am 11.5 11.1 8.4 81 1.5 CALM 0 6 0 3 - - 0.0
30/08:30am 10.7 10.0 8.6 87 1.0 WSW 2 7 1 4 - - 0.0
30/08:00am 9.9 8.3 8.2 89 0.8 WNW 6 11 3 6 - - 0.0
30/07:30am 9.8 9.4 8.2 90 0.8 CALM 0 0 0 0 - - 0.0
30/07:00am 9.7 9.3 8.1 90 0.8 CALM 0 0 0 0 - - 0.0
30/06:30am 10.0 9.6 8.1 88 0.9 CALM 0 0 0 0 - - 0.0
30/06:00am 10.1 8.4 8.4 89 0.8 NNW 7 11 4 6 - - 0.0
30/05:30am 9.9 8.4 8.5 91 0.7 NW 6 11 3 6 - - 0.0
30/05:00am 9.3 7.9 8.8 97 0.2 W 6 7 3 4 - - 0.0
30/04:30am 9.0 8.7 8.7 98 0.1 CALM 0 0 0 0 - - 0.0
30/04:00am 9.0 8.7 8.7 98 0.1 CALM 0 0 0 0 - - 0.0
30/03:30am 8.4 8.0 8.3 99 0.0 CALM 0 0 0 0 - - 0.0
30/03:00am 8.7 8.4 8.6 99 0.0 CALM 0 0 0 0 - - 0.0
30/02:30am 8.8 8.5 8.7 99 0.0 CALM 0 0 0 0 - - 0.0
30/02:00am 8.2 7.8 8.1 99 0.0 CALM 0 0 0 0 - - 0.0
30/01:30am 8.1 7.6 8.0 99 0.0 CALM 0 0 0 0 - - 0.0
30/01:00am 8.1 7.6 8.0 99 0.0 CALM 0 0 0 0 - - 0.0
30/12:30am 8.0 7.4 7.4 96 0.3 CALM 0 0 0 0 - - 0.0
30/12:00am 8.6 8.0 7.5 93 0.5 CALM 0 0 0 0 - - 0.0
 
Date/Time
EST
Temp
°C
App
Temp
°C
Dew
Point
°C
Rel
Hum
%
Delta-T
°C
Wind Press
QNH
hPa
Press
MSL
hPa
Rain since
9am
mm
Dir  Spd
km/h
Gust
km/h
Spd
kts
Gust
kts
29/11:30pm 9.0 8.5 7.8 92 0.6 CALM 0 0 0 0 - - 0.0
29/11:00pm 9.7 9.2 8.0 89 0.8 CALM 0 7 0 4 - - 0.0
29/10:30pm 9.9 9.6 8.7 92 0.6 CALM 0 6 0 3 - - 0.0
29/10:00pm 9.3 8.7 8.8 97 0.2 NNW 2 7 1 4 - - 0.0
29/09:30pm 8.9 8.5 8.3 96 0.3 CALM 0 0 0 0 - - 0.0
29/09:00pm 9.1 8.6 8.0 93 0.5 CALM 0 0 0 0 - - 0.0
29/08:30pm 9.2 8.6 7.3 88 0.9 CALM 0 0 0 0 - - 0.0
29/08:00pm 10.3 9.9 8.2 87 1.0 CALM 0 0 0 0 - - 0.0
29/07:30pm 10.7 10.4 8.5 86 1.1 CALM 0 0 0 0 - - 0.0
29/07:00pm 11.0 9.3 7.7 80 1.6 NE 6 7 3 4 - - 0.0
29/06:30pm 10.8 9.1 7.7 81 1.5 NE 6 7 3 4 - - 0.0
29/06:00pm 11.2 10.2 7.5 78 1.8 NNE 2 6 1 3 - - 0.0
29/05:30pm 12.8 11.1 7.5 70 2.6 N 6 9 3 5 - - 0.0
29/05:00pm 13.5 12.9 7.3 66 3.0 CALM 0 6 0 3 - - 0.0
29/04:30pm 15.1 13.1 7.2 59 3.9 N 7 11 4 6 - - 0.0
29/04:00pm 15.8 12.6 6.8 55 4.4 NNE 13 22 7 12 - - 0.0
29/03:30pm 16.2 12.9 6.6 53 4.7 NNE 13 20 7 11 - - 0.0
29/03:00pm 16.8 12.8 6.6 51 5.0 N 17 24 9 13 - - 0.0

Other formats

Comma delimited format used in spreadsheet applications
http://www.bom.gov.au/fwo/IDN60801/IDN60801.94766.axf

JavaScript Object Notation format (JSON) in row-major order
http://www.bom.gov.au/fwo/IDN60801/IDN60801.94766.json

Data quality

Most of these data are generated automatically and are frequently updated. Quality checks on data are not normally performed. It is possible for incorrect values to appear. Refer to information at About Latest Weather Observations and please check the disclaimer before using these data.